Time;durP1;ratioP1;P1;durP2;ratioP2;P2;SDS_P1;SDS_P2;PMS_P1;PMS_P2;Temp;Humidity;BMP_temperature;BMP_pressure;BME280_temperature;BME280_humidity;BME280_pressure;Samples;Min_cycle;Max_cycle;Signal;HPM_P1;HPM_P2
2022/05/29 00:01:04;;;;;;;18.60;5.07;;;;;;;-145.76;100.00;65039.31;4939005;28;20053;-74
2022/05/29 00:03:29;;;;;;;20.80;4.63;;;;;;;-145.76;100.00;65039.31;4937485;28;20433;-74
2022/05/29 00:05:55;;;;;;;19.65;3.80;;;;;;;-145.76;100.00;65039.31;4946363;28;20453;-74
2022/05/29 00:08:29;;;;;;;21.65;3.85;;;;;;;-145.76;100.00;65039.31;4931422;28;20586;-74
2022/05/29 00:10:56;;;;;;;27.17;4.47;;;;;;;-145.76;100.00;65039.31;4941365;28;20062;-74
2022/05/29 00:13:22;;;;;;;13.18;3.13;;;;;;;-145.76;100.00;65039.31;4928615;28;20042;-74
2022/05/29 00:15:47;;;;;;;18.90;3.58;;;;;;;-145.76;100.00;65039.31;4944138;28;20455;-73
2022/05/29 00:18:13;;;;;;;13.63;2.75;;;;;;;-145.76;100.00;65039.31;4932788;28;20070;-74
2022/05/29 00:20:39;;;;;;;18.73;3.78;;;;;;;-145.76;100.00;65039.31;4938886;28;20029;-73
2022/05/29 00:23:05;;;;;;;17.50;3.38;;;;;;;-145.76;100.00;65039.31;4946574;28;20038;-74
2022/05/29 00:25:31;;;;;;;15.27;3.35;;;;;;;-145.76;100.00;65039.31;4935573;28;20089;-74
2022/05/29 00:27:56;;;;;;;17.85;3.95;;;;;;;-145.76;100.00;65039.31;4943731;28;20091;-74
2022/05/29 00:30:22;;;;;;;20.40;4.30;;;;;;;-145.76;100.00;65039.31;4928242;28;20042;-74
2022/05/29 00:32:47;;;;;;;19.33;3.58;;;;;;;-145.76;100.00;65039.31;4943393;28;20029;-73
2022/05/29 00:35:13;;;;;;;22.83;4.70;;;;;;;-145.76;100.00;65039.31;4943725;28;20038;-73
2022/05/29 00:37:41;;;;;;;18.08;3.92;;;;;;;-145.76;100.00;65039.31;4944319;28;20042;-73
2022/05/29 00:40:26;;;;;;;20.25;4.32;;;;;;;-145.76;100.00;65039.31;4930753;28;20051;-73
2022/05/29 00:42:52;;;;;;;24.25;4.57;;;;;;;-145.76;100.00;65039.31;4943038;28;20117;-73
2022/05/29 00:45:19;;;;;;;24.20;5.07;;;;;;;-145.76;100.00;65039.31;4934638;28;20034;-73
2022/05/29 00:47:45;;;;;;;31.80;6.90;;;;;;;-145.76;100.00;65039.31;4942048;28;20555;-73
2022/05/29 00:50:10;;;;;;;28.05;5.85;;;;;;;-145.76;100.00;65039.31;4941276;28;20034;-73
2022/05/29 00:52:36;;;;;;;21.00;4.85;;;;;;;-145.76;100.00;65039.31;4921410;28;20049;-73
2022/05/29 00:55:05;;;;;;;33.88;9.60;;;;;;;-145.76;100.00;65039.31;4938638;28;20057;-73
2022/05/29 00:57:34;;;;;;;37.92;11.57;;;;;;;-145.76;100.00;65039.31;4928530;28;20046;-73
2022/05/29 01:00:10;;;;;;;51.70;12.90;;;;;;;-145.76;100.00;65039.31;4921888;28;20100;-73
2022/05/29 01:02:36;;;;;;;36.78;11.88;;;;;;;-145.76;100.00;65039.31;4927791;28;20088;-73
2022/05/29 01:05:07;;;;;;;41.60;10.23;;;;;;;-145.76;100.00;65039.31;4939551;28;20176;-73
2022/05/29 01:07:33;;;;;;;33.53;9.20;;;;;;;-145.76;100.00;65039.31;4911805;28;20095;-73
2022/05/29 01:09:59;;;;;;;38.53;9.23;;;;;;;-145.76;100.00;65039.31;4924720;28;20038;-73
2022/05/29 01:12:46;;;;;;;32.22;8.10;;;;;;;-145.76;100.00;65039.31;4943942;28;20026;-73
2022/05/29 01:15:22;;;;;;;31.05;7.65;;;;;;;-145.76;100.00;65039.31;4940473;28;20053;-73
2022/05/29 01:18:11;;;;;;;42.42;12.45;;;;;;;-145.76;100.00;65039.31;4943132;28;20046;-73
2022/05/29 01:20:46;;;;;;;34.45;8.93;;;;;;;-145.76;100.00;65039.31;4942095;28;20037;-73
2022/05/29 01:23:28;;;;;;;35.00;8.65;;;;;;;-145.76;100.00;65039.31;4939980;28;20041;-73
2022/05/29 01:26:07;;;;;;;41.50;10.20;;;;;;;-145.76;100.00;65039.31;4923962;28;20206;-73
2022/05/29 01:29:00;;;;;;;41.33;9.98;;;;;;;-145.76;100.00;65039.31;4943272;28;20038;-73
2022/05/29 01:31:51;;;;;;;35.88;9.70;;;;;;;-145.76;100.00;65039.31;4934850;28;20038;-73
2022/05/29 01:34:41;;;;;;;33.83;8.00;;;;;;;-145.76;100.00;65039.31;4921055;28;20034;-73
2022/05/29 01:37:27;;;;;;;36.30;10.35;;;;;;;-145.76;100.00;65039.31;4924321;28;20359;-73
2022/05/29 01:40:35;;;;;;;41.45;11.43;;;;;;;-145.76;100.00;65039.31;4926205;28;20030;-73
2022/05/29 01:43:39;;;;;;;22.20;4.28;;;;;;;-145.76;100.00;65039.31;4940013;28;20033;-73
2022/05/29 01:46:16;;;;;;;24.88;6.15;;;;;;;-145.76;100.00;65039.31;4935941;28;20038;-73
2022/05/29 01:48:57;;;;;;;22.33;6.57;;;;;;;-145.76;100.00;65039.31;4952409;28;20062;-73
2022/05/29 01:51:31;;;;;;;25.30;6.65;;;;;;;-145.76;100.00;65039.31;4919319;28;20038;-73
2022/05/29 01:54:02;;;;;;;24.48;6.45;;;;;;;-145.76;100.00;65039.31;4930063;28;20152;-73
2022/05/29 01:56:37;;;;;;;29.08;7.90;;;;;;;-145.76;100.00;65039.31;4937236;28;20053;-73
2022/05/29 01:59:29;;;;;;;31.33;7.00;;;;;;;-145.76;100.00;65039.31;4935920;28;20033;-73
2022/05/29 02:02:00;;;;;;;23.63;6.28;;;;;;;-145.76;100.00;65039.31;4938532;28;23261;-73
2022/05/29 02:04:27;;;;;;;28.73;5.45;;;;;;;-145.76;100.00;65039.31;4933755;28;20038;-73
2022/05/29 02:09:40;;;;;;;23.63;5.20;;;;;;;-145.76;100.00;65039.31;4932825;28;20383;-75
2022/05/29 02:12:08;;;;;;;25.52;4.85;;;;;;;-145.76;100.00;65039.31;4936685;28;20052;-75
2022/05/29 02:14:40;;;;;;;23.88;4.75;;;;;;;-145.76;100.00;65039.31;4935555;28;20045;-75
2022/05/29 02:17:10;;;;;;;30.13;6.78;;;;;;;-145.76;100.00;65039.31;4939227;28;20064;-74
2022/05/29 02:19:47;;;;;;;30.23;8.15;;;;;;;-145.76;100.00;65039.31;4941593;28;21773;-74
2022/05/29 02:22:18;;;;;;;44.10;12.05;;;;;;;-145.76;100.00;65039.31;4953469;28;20033;-74
2022/05/29 02:24:46;;;;;;;47.50;14.77;;;;;;;-145.76;100.00;65039.31;4940374;28;20041;-74
2022/05/29 02:27:32;;;;;;;38.38;11.02;;;;;;;-145.76;100.00;65039.31;4930721;28;20049;-73
2022/05/29 02:29:58;;;;;;;45.10;10.73;;;;;;;-145.76;100.00;65039.31;4941208;28;20030;-74
2022/05/29 02:32:53;;;;;;;34.60;8.93;;;;;;;-145.76;100.00;65039.31;4935188;28;21166;-73
2022/05/29 02:35:29;;;;;;;45.85;12.13;;;;;;;-145.76;100.00;65039.31;4937088;28;20591;-74
2022/05/29 02:38:03;;;;;;;51.28;14.70;;;;;;;-145.76;100.00;65039.31;4924498;28;21577;-73
2022/05/29 02:40:32;;;;;;;41.47;12.32;;;;;;;-145.76;100.00;65039.31;4943092;28;20484;-73
2022/05/29 02:43:07;;;;;;;23.85;5.47;;;;;;;-145.76;100.00;65039.31;4923873;28;20259;-73
2022/05/29 02:45:39;;;;;;;18.42;3.97;;;;;;;-145.76;100.00;65039.31;4942867;28;20080;-73
2022/05/29 02:48:11;;;;;;;18.02;4.82;;;;;;;-145.76;100.00;65039.31;4940400;28;20080;-75
2022/05/29 02:51:03;;;;;;;20.92;4.07;;;;;;;-145.76;100.00;65039.31;4921742;28;20038;-74
2022/05/29 02:53:31;;;;;;;19.40;5.05;;;;;;;-145.76;100.00;65039.31;4938168;28;21031;-75
2022/05/29 02:55:57;;;;;;;14.90;4.28;;;;;;;-145.76;100.00;65039.31;4940665;28;22215;-74
2022/05/29 02:58:25;;;;;;;15.45;4.68;;;;;;;-145.76;100.00;65039.31;4928026;28;20050;-74
2022/05/29 03:01:07;;;;;;;18.63;5.25;;;;;;;-145.76;100.00;65039.31;4920581;28;20587;-74
2022/05/29 03:03:52;;;;;;;25.42;4.82;;;;;;;-145.76;100.00;65039.31;4939419;28;20217;-74
2022/05/29 03:06:43;;;;;;;18.90;4.82;;;;;;;-145.76;100.00;65039.31;4941320;28;20053;-74
2022/05/29 03:09:23;;;;;;;22.92;5.45;;;;;;;-145.76;100.00;65039.31;4938096;28;20057;-73
2022/05/29 03:11:49;;;;;;;26.50;5.65;;;;;;;-145.76;100.00;65039.31;4941229;28;20708;-72
2022/05/29 03:14:32;;;;;;;27.85;5.55;;;;;;;-145.76;100.00;65039.31;4938790;28;20235;-72
2022/05/29 03:17:11;;;;;;;23.80;5.60;;;;;;;-145.76;100.00;65039.31;4939672;28;22506;-71
2022/05/29 03:19:53;;;;;;;29.17;6.80;;;;;;;-145.76;100.00;65039.31;4940394;28;20133;-71
2022/05/29 03:22:37;;;;;;;42.50;8.77;;;;;;;-145.76;100.00;65039.31;4923422;28;20050;-71
2022/05/29 03:25:22;;;;;;;37.40;9.75;;;;;;;-145.76;100.00;65039.31;4944975;28;20240;-71
2022/05/29 03:27:49;;;;;;;49.45;13.48;;;;;;;-145.76;100.00;65039.31;4924056;28;20441;-71
2022/05/29 03:30:23;;;;;;;48.78;14.02;;;;;;;-145.76;100.00;65039.31;4928492;28;20035;-73
2022/05/29 03:32:52;;;;;;;47.75;16.08;;;;;;;-145.76;100.00;65039.31;4935316;28;20042;-71
2022/05/29 03:35:17;;;;;;;30.67;8.35;;;;;;;-145.76;100.00;65039.31;4940198;28;22134;-71
2022/05/29 03:37:43;;;;;;;24.95;5.85;;;;;;;-145.76;100.00;65039.31;4937427;28;20402;-71
2022/05/29 03:40:10;;;;;;;27.73;5.30;;;;;;;-145.76;100.00;65039.31;4939871;28;20030;-71
2022/05/29 03:42:35;;;;;;;20.33;5.57;;;;;;;-145.76;100.00;65039.31;4936756;28;20061;-71
2022/05/29 03:45:00;;;;;;;16.42;4.35;;;;;;;-145.76;100.00;65039.31;4925243;28;20030;-71
2022/05/29 03:47:27;;;;;;;15.40;4.47;;;;;;;-145.76;100.00;65039.31;4944154;28;20095;-71
2022/05/29 03:49:52;;;;;;;23.50;3.80;;;;;;;-145.76;100.00;65039.31;4938435;28;20044;-71
2022/05/29 03:52:18;;;;;;;23.38;3.75;;;;;;;-145.76;100.00;65039.31;4945910;28;20082;-72
2022/05/29 03:54:43;;;;;;;17.58;3.65;;;;;;;-145.76;100.00;65039.31;4912974;28;22512;-71
2022/05/29 03:57:09;;;;;;;17.90;4.03;;;;;;;-145.76;100.00;65039.31;4942754;28;25312;-71
2022/05/29 03:59:34;;;;;;;20.08;4.05;;;;;;;-145.76;100.00;65039.31;4940402;28;20041;-73
2022/05/29 04:01:59;;;;;;;14.60;2.75;;;;;;;-145.76;100.00;65039.31;4947421;28;20038;-73
2022/05/29 04:04:25;;;;;;;18.70;3.90;;;;;;;-145.76;100.00;65039.31;4941490;28;20038;-74
2022/05/29 04:06:50;;;;;;;22.38;4.28;;;;;;;-145.76;100.00;65039.31;4938019;28;20045;-73
2022/05/29 04:12:05;;;;;;;;;;;;;;;-145.76;100.00;65039.31;4914348;28;20640;-73
2022/05/29 04:14:39;;;;;;;16.45;3.70;;;;;;;-145.76;100.00;65039.31;4948016;28;20049;-73
2022/05/29 04:17:06;;;;;;;25.10;4.35;;;;;;;-145.76;100.00;65039.31;4933890;28;20054;-73
2022/05/29 04:19:32;;;;;;;22.15;4.55;;;;;;;-145.76;100.00;65039.31;4947749;28;20038;-73
2022/05/29 04:21:58;;;;;;;19.92;5.22;;;;;;;-145.76;100.00;65039.31;4924785;28;20136;-73
2022/05/29 04:24:24;;;;;;;27.77;6.70;;;;;;;-145.76;100.00;65039.31;4945151;28;20045;-73
2022/05/29 04:26:50;;;;;;;26.08;7.30;;;;;;;-145.76;100.00;65039.31;4931325;28;20041;-73
2022/05/29 04:29:17;;;;;;;26.65;5.55;;;;;;;-145.76;100.00;65039.31;4927483;28;20037;-73
2022/05/29 04:32:59;;;;;;;34.10;7.25;;;;;;;-145.76;100.00;65039.31;4944796;28;20042;-73
2022/05/29 04:34:30;;;;;;;25.92;6.57;;;;;;;-145.76;100.00;65039.31;4932003;28;20042;-73
2022/05/29 04:36:56;;;;;;;31.60;6.88;;;;;;;-145.76;100.00;65039.31;4942239;28;20082;-73
2022/05/29 04:39:21;;;;;;;37.92;8.52;;;;;;;-145.76;100.00;65039.31;4930961;28;20385;-73
2022/05/29 04:41:47;;;;;;;25.55;4.82;;;;;;;-145.76;100.00;65039.31;4944809;28;20083;-74
2022/05/29 04:44:12;;;;;;;20.23;3.63;;;;;;;-145.76;100.00;65039.31;4932873;28;20090;-74
2022/05/29 04:46:38;;;;;;;19.65;3.60;;;;;;;-145.76;100.00;65039.31;4937532;28;20034;-73
2022/05/29 04:49:04;;;;;;;17.48;3.33;;;;;;;-145.76;100.00;65039.31;4931630;28;20032;-73
2022/05/29 04:51:29;;;;;;;19.83;3.60;;;;;;;-145.76;100.00;65039.31;4941618;28;20034;-73
2022/05/29 04:53:54;;;;;;;19.27;3.55;;;;;;;-145.76;100.00;65039.31;4928928;28;20030;-73
2022/05/29 04:56:20;;;;;;;24.40;5.05;;;;;;;-145.76;100.00;65039.31;4928393;28;20050;-73
2022/05/29 04:58:45;;;;;;;18.20;2.97;;;;;;;-145.76;100.00;65039.31;4943986;28;20107;-73
2022/05/29 05:01:11;;;;;;;29.27;4.57;;;;;;;-145.76;100.00;65039.31;4938073;28;20091;-73
2022/05/29 05:03:36;;;;;;;23.85;4.20;;;;;;;-145.76;100.00;65039.31;4936257;28;20038;-73
2022/05/29 05:06:02;;;;;;;23.48;4.93;;;;;;;-145.76;100.00;65039.31;4921940;28;20974;-73
2022/05/29 05:08:28;;;;;;;20.23;3.60;;;;;;;-145.76;100.00;65039.31;4938236;28;20034;-73
2022/05/29 05:10:54;;;;;;;23.52;4.13;;;;;;;-145.76;100.00;65039.31;4921717;28;20069;-73
2022/05/29 05:13:20;;;;;;;27.60;3.53;;;;;;;-145.76;100.00;65039.31;4934966;28;20065;-73
2022/05/29 05:15:45;;;;;;;15.77;3.10;;;;;;;-145.76;100.00;65039.31;4938881;28;20045;-73
2022/05/29 05:18:10;;;;;;;25.60;4.13;;;;;;;-145.76;100.00;65039.31;4923246;28;21320;-73
2022/05/29 05:20:37;;;;;;;18.25;3.85;;;;;;;-145.76;100.00;65039.31;4938985;28;20031;-73
2022/05/29 05:23:03;;;;;;;22.73;4.13;;;;;;;-145.76;100.00;65039.31;4922537;28;20073;-73
2022/05/29 05:25:29;;;;;;;18.90;3.35;;;;;;;-145.76;100.00;65039.31;4938682;28;20046;-73
2022/05/29 05:27:54;;;;;;;15.32;2.83;;;;;;;-145.76;100.00;65039.31;4925199;28;20482;-73
2022/05/29 05:30:20;;;;;;;20.83;4.13;;;;;;;-145.76;100.00;65039.31;4939308;28;20121;-73
2022/05/29 05:32:45;;;;;;;23.83;4.38;;;;;;;-145.76;100.00;65039.31;4934405;28;20566;-73
2022/05/29 05:35:11;;;;;;;21.38;4.00;;;;;;;-145.76;100.00;65039.31;4925083;28;20163;-72
2022/05/29 05:37:37;;;;;;;20.98;3.03;;;;;;;-145.76;100.00;65039.31;4938908;28;20054;-72
2022/05/29 05:40:07;;;;;;;28.92;4.50;;;;;;;-145.76;100.00;65039.31;4922995;28;20056;-72
2022/05/29 05:42:32;;;;;;;27.67;4.03;;;;;;;-145.76;100.00;65039.31;4936388;28;20358;-72
2022/05/29 05:44:58;;;;;;;22.17;4.13;;;;;;;-145.76;100.00;65039.31;4927059;28;20057;-72
2022/05/29 05:47:24;;;;;;;25.70;4.55;;;;;;;-145.76;100.00;65039.31;4943241;28;20117;-73
2022/05/29 05:49:50;;;;;;;24.02;3.17;;;;;;;-145.76;100.00;65039.31;4929351;28;20030;-72
2022/05/29 05:52:17;;;;;;;21.80;3.47;;;;;;;-145.76;100.00;65039.31;4936145;28;20094;-73
2022/05/29 05:54:43;;;;;;;23.50;3.80;;;;;;;-145.76;100.00;65039.31;4957321;28;20156;-72
2022/05/29 05:57:08;;;;;;;19.00;3.35;;;;;;;-145.76;100.00;65039.31;4924864;28;20042;-72
2022/05/29 05:59:35;;;;;;;25.65;4.32;;;;;;;-145.76;100.00;65039.31;4946207;28;20442;-72
2022/05/29 06:02:01;;;;;;;22.02;3.92;;;;;;;-145.76;100.00;65039.31;4929425;28;20050;-72
2022/05/29 06:04:26;;;;;;;17.75;3.58;;;;;;;-145.76;100.00;65039.31;4945228;28;22697;-72
2022/05/29 06:06:53;;;;;;;26.40;3.80;;;;;;;-145.76;100.00;65039.31;4927070;28;23599;-72
2022/05/29 06:09:20;;;;;;;19.10;3.75;;;;;;;-145.76;100.00;65039.31;4944232;28;20030;-72
2022/05/29 06:11:46;;;;;;;18.30;3.72;;;;;;;-145.76;100.00;65039.31;4926807;28;20149;-72
2022/05/29 06:14:12;;;;;;;14.88;3.40;;;;;;;-145.76;100.00;65039.31;4944512;28;21083;-72
2022/05/29 06:16:37;;;;;;;17.92;3.00;;;;;;;-145.76;100.00;65039.31;4945811;28;20111;-72
2022/05/29 06:19:05;;;;;;;25.55;3.85;;;;;;;-145.76;100.00;65039.31;4935561;28;20050;-72
2022/05/29 06:21:31;;;;;;;16.45;3.15;;;;;;;-145.76;100.00;65039.31;4951792;28;20777;-72
2022/05/29 06:23:56;;;;;;;16.10;3.67;;;;;;;-145.76;100.00;65039.31;4907943;28;20038;-72
2022/05/29 06:26:21;;;;;;;22.38;3.75;;;;;;;-145.76;100.00;65039.31;4942128;28;20109;-71
2022/05/29 06:28:47;;;;;;;20.98;3.90;;;;;;;-145.76;100.00;65039.31;4927641;28;20042;-72
2022/05/29 06:31:12;;;;;;;16.83;3.20;;;;;;;-145.76;100.00;65039.31;4943252;28;20164;-72
2022/05/29 06:33:38;;;;;;;20.45;3.88;;;;;;;-145.76;100.00;65039.31;4932649;28;20041;-72
2022/05/29 06:36:18;;;;;;;20.52;3.72;;;;;;;-145.76;100.00;65039.31;4930574;28;20103;-72
2022/05/29 06:38:45;;;;;;;22.27;3.60;;;;;;;-145.76;100.00;65039.31;4940466;28;20038;-72
2022/05/29 06:41:13;;;;;;;28.30;3.42;;;;;;;-145.76;100.00;65039.31;4925461;28;20068;-73
2022/05/29 06:43:39;;;;;;;23.40;3.50;;;;;;;-145.76;100.00;65039.31;4942639;28;20034;-72
2022/05/29 06:46:05;;;;;;;23.70;3.88;;;;;;;-145.76;100.00;65039.31;4925481;28;20517;-72
2022/05/29 06:48:34;;;;;;;18.25;3.13;;;;;;;-145.76;100.00;65039.31;4942503;28;20412;-72
2022/05/29 06:51:17;;;;;;;20.35;3.17;;;;;;;-145.76;100.00;65039.31;4928160;28;20045;-72
2022/05/29 06:53:43;;;;;;;18.58;3.25;;;;;;;-145.76;100.00;65039.31;4943835;28;20988;-72
2022/05/29 06:56:09;;;;;;;15.25;2.50;;;;;;;-145.76;100.00;65039.31;4932072;28;20128;-72
2022/05/29 06:58:35;;;;;;;12.48;2.35;;;;;;;-145.76;100.00;65039.31;4946077;28;20245;-72
2022/05/29 07:09:18;;;;;;;15.65;2.42;;;;;;;-145.76;100.00;65039.31;4930048;28;20144;-72
2022/05/29 07:11:44;;;;;;;17.10;3.05;;;;;;;-145.76;100.00;65039.31;4947962;28;20033;-71
2022/05/29 07:14:10;;;;;;;13.35;2.67;;;;;;;-145.76;100.00;65039.31;4931681;28;20077;-71
2022/05/29 07:16:37;;;;;;;16.20;3.35;;;;;;;-145.76;100.00;65039.31;4947241;28;20056;-71
2022/05/29 07:19:04;;;;;;;10.43;2.10;;;;;;;-145.76;100.00;65039.31;4913910;28;23755;-73
2022/05/29 07:21:33;;;;;;;13.60;2.33;;;;;;;-145.76;100.00;65039.31;4948532;28;21324;-72
2022/05/29 07:23:59;;;;;;;17.15;2.30;;;;;;;-145.76;100.00;65039.31;4929992;28;20073;-71
2022/05/29 07:26:25;;;;;;;17.23;2.35;;;;;;;-145.76;100.00;65039.31;4946969;28;20135;-72
2022/05/29 07:28:51;;;;;;;11.73;2.08;;;;;;;-145.76;100.00;65039.31;4943199;28;20250;-72
2022/05/29 07:31:17;;;;;;;7.72;1.50;;;;;;;-145.76;100.00;65039.31;4934458;28;20402;-72
2022/05/29 07:33:42;;;;;;;5.85;1.30;;;;;;;-145.76;100.00;65039.31;4926616;28;21053;-72
2022/05/29 07:36:12;;;;;;;10.98;2.17;;;;;;;-145.76;100.00;65039.31;4931052;28;20099;-73
2022/05/29 07:38:38;;;;;;;15.88;2.60;;;;;;;-145.76;100.00;65039.31;4945719;28;20038;-72
2022/05/29 07:43:18;;;;;;;12.05;1.80;;;;;;;-145.76;100.00;65039.31;4931342;28;20049;-72
2022/05/29 07:43:51;;;;;;;15.05;2.30;;;;;;;-145.76;100.00;65039.31;4940950;28;20058;-72
2022/05/29 07:46:17;;;;;;;16.58;4.38;;;;;;;-145.76;100.00;65039.31;4929516;28;20081;-72
2022/05/29 07:48:43;;;;;;;15.82;3.08;;;;;;;-145.76;100.00;65039.31;4946026;28;20048;-72
2022/05/29 07:51:10;;;;;;;18.25;3.45;;;;;;;-145.76;100.00;65039.31;4939985;28;20084;-72
2022/05/29 07:53:36;;;;;;;16.00;2.90;;;;;;;-145.76;100.00;65039.31;4935298;28;20069;-72
2022/05/29 07:56:02;;;;;;;16.55;2.58;;;;;;;-145.76;100.00;65039.31;4945649;28;20159;-72
2022/05/29 07:58:28;;;;;;;15.50;3.60;;;;;;;-145.76;100.00;65039.31;4938849;28;20045;-71
2022/05/29 08:00:53;;;;;;;13.38;2.72;;;;;;;-145.76;100.00;65039.31;4944681;28;20041;-71
2022/05/29 08:03:19;;;;;;;13.35;2.80;;;;;;;-145.76;100.00;65039.31;4925403;28;20343;-71
2022/05/29 08:05:45;;;;;;;17.15;2.40;;;;;;;-145.76;100.00;65039.31;4943708;28;21145;-71
2022/05/29 08:08:13;;;;;;;13.23;2.10;;;;;;;-145.76;100.00;65039.31;4929286;28;20058;-72
2022/05/29 08:10:40;;;;;;;16.58;3.28;;;;;;;-145.76;100.00;65039.31;4947211;28;20168;-71
2022/05/29 08:13:06;;;;;;;11.90;2.15;;;;;;;-145.76;100.00;65039.31;4945001;28;24415;-72
2022/05/29 08:15:31;;;;;;;11.05;1.73;;;;;;;-145.76;100.00;65039.31;4927257;28;20131;-71
2022/05/29 08:18:00;;;;;;;16.00;2.80;;;;;;;-145.76;100.00;65039.31;4948962;28;20607;-71
2022/05/29 08:20:27;;;;;;;9.35;1.60;;;;;;;-145.76;100.00;65039.31;4928166;28;20139;-71
2022/05/29 08:22:52;;;;;;;10.95;2.60;;;;;;;-145.76;100.00;65039.31;4943847;28;20129;-71
2022/05/29 08:30:51;;;;;;;10.10;1.80;;;;;;;-145.76;100.00;65039.31;4932676;28;20054;-71
2022/05/29 08:33:18;;;;;;;8.00;1.90;;;;;;;-145.76;100.00;65039.31;4945366;28;20032;-71
2022/05/29 08:35:47;;;;;;;14.63;2.00;;;;;;;-145.76;100.00;65039.31;4921381;28;25022;-71
2022/05/29 08:38:15;;;;;;;12.45;2.00;;;;;;;-145.76;100.00;65039.31;4940773;28;20049;-71
2022/05/29 08:40:50;;;;;;;11.40;2.00;;;;;;;-145.76;100.00;65039.31;4946634;28;20041;-71
2022/05/29 08:43:27;;;;;;;11.20;2.45;;;;;;;-145.76;100.00;65039.31;4914740;28;20148;-72
2022/05/29 08:45:53;;;;;;;12.05;2.33;;;;;;;-145.76;100.00;65039.31;4961093;28;20038;-72
2022/05/29 08:48:21;;;;;;;23.77;2.80;;;;;;;-145.76;100.00;65039.31;4912513;28;21173;-72
2022/05/29 08:51:08;;;;;;;11.73;2.72;;;;;;;-145.76;100.00;65039.31;4943910;28;20040;-73
2022/05/29 08:53:39;;;;;;;13.02;2.25;;;;;;;-145.76;100.00;65039.31;4912001;28;20053;-73
2022/05/29 08:56:14;;;;;;;15.13;2.58;;;;;;;-145.76;100.00;65039.31;4940654;28;20030;-73
2022/05/29 08:59:09;;;;;;;10.95;2.00;;;;;;;-145.76;100.00;65039.31;4929658;28;20053;-73
2022/05/29 09:01:45;;;;;;;15.70;2.53;;;;;;;-145.76;100.00;65039.31;4943668;28;20041;-73
2022/05/29 09:04:18;;;;;;;11.60;2.10;;;;;;;-145.76;100.00;65039.31;4928363;28;20096;-73
2022/05/29 09:06:47;;;;;;;13.45;3.15;;;;;;;-145.76;100.00;65039.31;4959560;28;20032;-73
2022/05/29 09:09:24;;;;;;;15.68;2.03;;;;;;;-145.76;100.00;65039.31;4927616;28;23441;-73
2022/05/29 09:11:51;;;;;;;12.00;1.80;;;;;;;-145.76;100.00;65039.31;4944875;28;20030;-73
2022/05/29 09:14:25;;;;;;;13.20;2.97;;;;;;;-145.76;100.00;65039.31;4939248;28;20041;-73
2022/05/29 09:17:03;;;;;;;8.38;2.10;;;;;;;-145.76;100.00;65039.31;4942763;28;20065;-73
2022/05/29 09:19:35;;;;;;;13.55;1.60;;;;;;;-145.76;100.00;65039.31;4943027;28;20030;-73
2022/05/29 09:22:16;;;;;;;9.20;1.65;;;;;;;-145.76;100.00;65039.31;4931906;28;20152;-73
2022/05/29 09:24:55;;;;;;;6.70;1.27;;;;;;;-145.76;100.00;65039.31;4944889;28;20052;-73
2022/05/29 09:27:20;;;;;;;12.23;1.90;;;;;;;-145.76;100.00;65039.31;4926091;28;20053;-73
2022/05/29 09:29:46;;;;;;;13.55;1.88;;;;;;;-145.76;100.00;65039.31;4944720;28;20053;-72
2022/05/29 09:32:15;;;;;;;9.57;1.50;;;;;;;-145.76;100.00;65039.31;4931266;28;20042;-74
2022/05/29 09:34:43;;;;;;;11.88;1.80;;;;;;;-145.76;100.00;65039.31;4944727;28;20038;-75
2022/05/29 09:37:18;;;;;;;9.63;1.83;;;;;;;-145.76;100.00;65039.31;4932363;28;20049;-74
2022/05/29 09:39:47;;;;;;;11.75;2.38;;;;;;;-145.76;100.00;65039.31;4927254;28;20038;-74
2022/05/29 09:42:24;;;;;;;10.13;1.83;;;;;;;-145.76;100.00;65039.31;4910355;28;20475;-73
2022/05/29 09:45:15;;;;;;;11.98;2.03;;;;;;;-145.76;100.00;65039.31;4943714;28;20065;-74
2022/05/29 09:50:51;;;;;;;19.35;3.40;;;;;;;-145.76;100.00;65039.31;4945179;28;20073;-73
2022/05/29 09:53:23;;;;;;;11.18;1.65;;;;;;;-145.76;100.00;65039.31;4929065;28;20046;-73
2022/05/29 09:55:52;;;;;;;12.23;2.28;;;;;;;-145.76;100.00;65039.31;4947776;28;20607;-71
2022/05/29 09:58:22;;;;;;;9.40;1.75;;;;;;;-145.76;100.00;65039.31;4943108;28;20049;-73
2022/05/29 10:01:08;;;;;;;9.25;1.95;;;;;;;-145.76;100.00;65039.31;4933480;28;20119;-73
2022/05/29 10:03:37;;;;;;;12.40;2.13;;;;;;;-145.76;100.00;65039.31;4926179;28;20136;-73
2022/05/29 10:06:42;;;;;;;12.93;2.15;;;;;;;-145.76;100.00;65039.31;4930013;28;20470;-73
2022/05/29 10:09:13;;;;;;;10.30;2.05;;;;;;;-145.76;100.00;65039.31;4878590;28;20043;-73
2022/05/29 10:11:40;;;;;;;14.75;2.28;;;;;;;-145.76;100.00;65039.31;4922855;28;20168;-73
2022/05/29 10:14:33;;;;;;;9.80;1.55;;;;;;;-145.76;100.00;65039.31;4946019;28;20124;-74
2022/05/29 10:16:58;;;;;;;12.05;1.98;;;;;;;-145.76;100.00;65039.31;4932018;28;20049;-73
2022/05/29 10:19:37;;;;;;;11.32;1.88;;;;;;;-145.76;100.00;65039.31;4950561;28;23444;-73
2022/05/29 10:22:10;;;;;;;13.90;1.70;;;;;;;-145.76;100.00;65039.31;4930950;28;20050;-73
2022/05/29 10:24:37;;;;;;;12.35;2.38;;;;;;;-145.76;100.00;65039.31;4944575;28;20528;-73
2022/05/29 10:27:08;;;;;;;14.95;2.15;;;;;;;-145.76;100.00;65039.31;4927537;28;20986;-72
2022/05/29 10:29:36;;;;;;;8.70;2.17;;;;;;;-145.76;100.00;65039.31;4943562;28;20121;-72
2022/05/29 10:32:05;;;;;;;10.68;1.70;;;;;;;-145.76;100.00;65039.31;4909640;28;20064;-73
2022/05/29 10:34:33;;;;;;;15.07;3.35;;;;;;;-145.76;100.00;65039.31;4941093;28;22740;-72
2022/05/29 10:36:59;;;;;;;10.07;2.22;;;;;;;-145.76;100.00;65039.31;4939271;28;20046;-70
2022/05/29 10:39:31;;;;;;;17.85;2.47;;;;;;;-145.76;100.00;65039.31;4931237;28;20046;-70
2022/05/29 10:41:58;;;;;;;12.95;1.95;;;;;;;-145.76;100.00;65039.31;4943662;28;20053;-70
2022/05/29 10:44:37;;;;;;;11.07;2.13;;;;;;;-145.76;100.00;65039.31;4928501;28;20038;-70
2022/05/29 10:47:30;;;;;;;18.25;2.33;;;;;;;-145.76;100.00;65039.31;4943689;28;20045;-70
2022/05/29 10:50:21;;;;;;;14.27;3.23;;;;;;;-145.76;100.00;65039.31;4928517;28;20045;-70
2022/05/29 10:52:56;;;;;;;23.48;6.38;;;;;;;-145.76;100.00;65039.31;4914346;28;20072;-70
2022/05/29 10:55:24;;;;;;;16.75;5.28;;;;;;;-145.76;100.00;65039.31;4925828;28;20041;-70
2022/05/29 10:58:09;;;;;;;15.98;2.30;;;;;;;-145.76;100.00;65039.31;4944401;28;20084;-70
2022/05/29 11:01:02;;;;;;;15.32;3.00;;;;;;;-145.76;100.00;65039.31;4926613;28;20057;-70
2022/05/29 11:03:40;;;;;;;;;;;;;;;-145.76;100.00;65039.31;4941961;28;20038;-70
2022/05/29 11:06:43;;;;;;;8.45;2.20;;;;;;;-145.76;100.00;65039.31;4929703;28;19925;-71
2022/05/29 11:09:38;;;;;;;13.57;2.85;;;;;;;-145.76;100.00;65039.31;4944692;28;20156;-70
2022/05/29 11:12:35;;;;;;;15.90;2.50;;;;;;;-145.76;100.00;65039.31;4929947;28;20041;-70
2022/05/29 11:15:28;;;;;;;12.80;2.15;;;;;;;-145.76;100.00;65039.31;4936932;28;22820;-70
2022/05/29 11:18:25;;;;;;;12.50;1.90;;;;;;;-145.76;100.00;65039.31;4921851;28;20055;-70
2022/05/29 11:21:26;;;;;;;10.80;2.38;;;;;;;-145.76;100.00;65039.31;4944469;28;20046;-70
2022/05/29 11:24:05;;;;;;;15.82;2.42;;;;;;;-145.76;100.00;65039.31;4913841;28;20041;-70
2022/05/29 11:26:43;;;;;;;16.15;2.95;;;;;;;-145.76;100.00;65039.31;4943555;28;20058;-70
2022/05/29 11:29:36;;;;;;;14.10;1.95;;;;;;;-145.76;100.00;65039.31;4930713;28;20062;-70
2022/05/29 11:32:07;;;;;;;11.10;1.85;;;;;;;-145.76;100.00;65039.31;4940400;28;20034;-70
2022/05/29 11:34:36;;;;;;;11.60;2.10;;;;;;;-145.76;100.00;65039.31;4930131;28;20041;-70
2022/05/29 11:37:27;;;;;;;9.23;1.90;;;;;;;-145.76;100.00;65039.31;4952159;28;20050;-70
2022/05/29 11:39:57;;;;;;;15.02;3.10;;;;;;;-145.76;100.00;65039.31;4928959;28;23577;-70
2022/05/29 11:42:34;;;;;;;13.50;2.78;;;;;;;-145.76;100.00;65039.31;4947379;28;20042;-70
2022/05/29 11:45:00;;;;;;;15.48;1.92;;;;;;;-145.76;100.00;65039.31;4932014;28;20990;-70